Time;durP1;ratioP1;P1;durP2;ratioP2;P2;SDS_P1;SDS_P2;PMS_P1;PMS_P2;Temp;Humidity;BMP_temperature;BMP_pressure;BME280_temperature;BME280_humidity;BME280_pressure;Samples;Min_cycle;Max_cycle;Signal;HPM_P1;HPM_P2
2022/11/03 00:01:52;;;;;;;12.93;3.20;;;;;;;10.85;77.51;101373.00;5084787;28;20035;-60
2022/11/03 00:04:19;;;;;;;21.08;3.83;;;;;;;10.88;77.26;101369.22;5084938;28;20084;-58
2022/11/03 00:06:47;;;;;;;17.45;3.83;;;;;;;10.86;77.98;101360.59;5086117;28;20577;-60
2022/11/03 00:09:15;;;;;;;20.00;4.03;;;;;;;10.86;78.02;101347.34;5083945;28;20441;-59
2022/11/03 00:11:42;;;;;;;18.60;3.85;;;;;;;10.85;77.48;101354.44;5084937;28;20100;-58
2022/11/03 00:14:09;;;;;;;18.58;3.90;;;;;;;10.85;78.03;101350.97;5085254;28;20070;-60
2022/11/03 00:16:35;;;;;;;16.58;4.25;;;;;;;10.86;78.02;101355.28;5084043;28;20032;-58
2022/11/03 00:19:00;;;;;;;17.55;3.67;;;;;;;10.85;77.33;101351.78;5085650;28;20411;-60
2022/11/03 00:21:26;;;;;;;16.48;3.75;;;;;;;10.84;78.27;101350.13;5083887;28;20043;-59
2022/11/03 00:23:52;;;;;;;17.02;3.72;;;;;;;10.84;77.50;101336.88;5085211;28;20759;-59
2022/11/03 00:26:20;;;;;;;17.23;3.53;;;;;;;10.84;78.15;101336.00;5085923;28;20089;-57
2022/11/03 00:28:47;;;;;;;17.05;3.67;;;;;;;10.84;77.95;101334.22;5085768;28;20111;-60
2022/11/03 00:31:19;;;;;;;17.42;3.67;;;;;;;10.85;77.75;101337.72;5084483;28;20024;-56
2022/11/03 00:33:46;;;;;;;15.75;3.60;;;;;;;10.86;77.64;101331.41;5085039;28;20111;-58
2022/11/03 00:36:14;;;;;;;15.77;3.95;;;;;;;10.85;78.29;101330.56;5085471;28;20059;-58
2022/11/03 00:38:41;;;;;;;17.50;3.80;;;;;;;10.87;77.72;101322.47;5085454;28;20024;-59
2022/11/03 00:41:06;;;;;;;14.00;3.58;;;;;;;10.87;77.44;101319.81;5082777;28;20132;-57
2022/11/03 00:43:34;;;;;;;16.65;3.72;;;;;;;10.86;77.28;101311.00;5085205;28;20594;-58
2022/11/03 00:46:00;;;;;;;18.50;3.55;;;;;;;10.90;77.56;101309.72;5084781;28;20039;-58
2022/11/03 00:48:28;;;;;;;16.73;3.65;;;;;;;10.94;77.42;101309.41;5085455;28;20093;-58
2022/11/03 00:51:08;;;;;;;16.25;3.80;;;;;;;10.92;77.84;101306.06;5083672;28;20099;-58
2022/11/03 00:53:56;;;;;;;14.80;3.30;;;;;;;10.93;77.81;101305.09;5085400;28;20040;-60
2022/11/03 00:56:22;;;;;;;15.60;3.55;;;;;;;10.88;77.47;101295.78;5084209;28;20129;-60
2022/11/03 00:58:49;;;;;;;21.88;3.65;;;;;;;10.96;77.75;101289.69;5101102;28;20091;-58
2022/11/03 01:01:20;;;;;;;16.33;3.47;;;;;;;10.95;76.93;101290.69;5083339;28;20028;-58
2022/11/03 01:06:49;;;;;;;18.83;3.83;;;;;;;10.95;77.33;101272.09;5083796;28;20096;-58
2022/11/03 01:09:24;;;;;;;14.02;3.33;;;;;;;11.00;77.05;101269.00;5083674;28;20024;-58
2022/11/03 01:11:58;;;;;;;20.45;3.70;;;;;;;11.02;76.98;101272.34;5084009;28;20107;-60
2022/11/03 01:14:28;;;;;;;17.63;3.72;;;;;;;11.00;77.19;101271.66;5084318;28;20039;-58
2022/11/03 01:16:53;;;;;;;16.35;3.72;;;;;;;11.03;77.82;101268.69;5081413;28;20032;-57
2022/11/03 01:19:19;;;;;;;15.77;3.45;;;;;;;11.04;77.12;101270.34;5082825;28;20581;-58
2022/11/03 01:21:44;;;;;;;14.07;3.50;;;;;;;11.05;77.49;101272.00;5083281;28;20032;-58
2022/11/03 01:24:09;;;;;;;16.15;3.45;;;;;;;11.08;77.63;101265.56;5085540;28;20039;-61
2022/11/03 01:26:35;;;;;;;16.25;3.80;;;;;;;11.07;77.04;101262.09;5083918;28;20044;-60
2022/11/03 01:29:00;;;;;;;16.33;3.72;;;;;;;11.10;76.61;101264.44;5084098;28;20042;-57
2022/11/03 01:31:27;;;;;;;16.83;3.80;;;;;;;11.14;76.59;101247.22;5082987;28;20421;-58
2022/11/03 01:33:54;;;;;;;17.42;3.40;;;;;;;11.12;76.79;101251.84;5083565;28;20028;-59
2022/11/03 01:36:19;;;;;;;17.08;3.40;;;;;;;11.13;77.29;101248.22;5083529;28;20024;-57
2022/11/03 01:38:45;;;;;;;15.45;3.53;;;;;;;11.13;76.68;101248.22;5084246;28;20047;-59
2022/11/03 01:41:15;;;;;;;16.05;3.63;;;;;;;11.11;76.66;101239.56;5083400;28;20028;-58
2022/11/03 01:43:40;;;;;;;17.17;3.78;;;;;;;11.14;77.21;101238.41;5084791;28;20044;-59
2022/11/03 01:46:27;;;;;;;17.05;3.60;;;;;;;11.14;77.56;101220.69;5082770;28;20067;-58
2022/11/03 01:49:04;;;;;;;13.43;3.25;;;;;;;11.12;76.75;101220.00;5078899;28;20038;-58
2022/11/03 01:51:33;;;;;;;14.27;3.40;;;;;;;11.13;77.02;101212.84;5080221;28;20129;-58
2022/11/03 01:54:03;;;;;;;17.17;4.10;;;;;;;11.14;77.48;101214.53;5084080;28;20115;-58
2022/11/03 01:56:32;;;;;;;20.27;3.92;;;;;;;11.14;77.68;101210.06;5084158;28;20062;-58
2022/11/03 01:58:57;;;;;;;12.25;3.20;;;;;;;11.14;78.01;101212.72;5084511;28;20061;-58
2022/11/03 02:01:23;;;;;;;16.25;3.40;;;;;;;11.13;77.61;101216.38;5079631;28;20036;-58
2022/11/03 02:03:53;;;;;;;19.00;3.70;;;;;;;11.12;78.37;101213.84;5083075;28;20513;-58
2022/11/03 02:06:24;;;;;;;12.43;3.40;;;;;;;11.14;78.11;101214.53;5082849;28;20038;-60
2022/11/03 02:09:04;;;;;;;13.35;3.25;;;;;;;11.19;78.18;101206.94;5082922;28;20097;-59
2022/11/03 02:14:15;;;;;;;17.60;3.40;;;;;;;11.14;78.19;101191.47;5083890;28;20134;-57
2022/11/03 02:16:46;;;;;;;15.93;3.55;;;;;;;11.15;77.76;101195.78;5079740;28;20043;-58
2022/11/03 02:19:47;;;;;;;12.40;3.25;;;;;;;11.17;77.74;101193.81;5082474;28;20322;-60
2022/11/03 02:22:19;;;;;;;13.15;3.35;;;;;;;11.19;77.88;101190.19;5079112;28;20586;-58
2022/11/03 02:24:53;;;;;;;13.23;3.50;;;;;;;11.18;77.96;101181.38;5082131;28;20487;-58
2022/11/03 02:27:19;;;;;;;13.63;3.30;;;;;;;11.17;78.11;101179.72;5082970;28;20029;-57
2022/11/03 02:29:45;;;;;;;16.42;3.60;;;;;;;11.16;77.89;101176.22;5082371;28;20043;-58
2022/11/03 02:32:25;;;;;;;15.05;3.55;;;;;;;11.16;77.71;101178.88;5084218;28;20478;-60
2022/11/03 02:35:12;;;;;;;15.25;3.60;;;;;;;11.13;78.17;101168.59;5080876;28;20043;-60
2022/11/03 02:37:42;;;;;;;13.90;3.17;;;;;;;11.16;78.25;101165.59;5082092;28;20032;-58
2022/11/03 02:40:13;;;;;;;15.05;3.63;;;;;;;11.15;78.11;101155.97;5081048;28;20051;-57
2022/11/03 02:42:43;;;;;;;17.35;3.47;;;;;;;11.12;78.51;101161.63;5082217;28;20044;-58
2022/11/03 02:45:11;;;;;;;12.88;3.40;;;;;;;11.09;78.28;101146.00;5083417;28;20043;-58
2022/11/03 02:47:39;;;;;;;17.80;3.63;;;;;;;11.08;78.28;101146.13;5082002;28;20044;-61
2022/11/03 02:50:07;;;;;;;13.30;3.25;;;;;;;11.06;78.44;101141.00;5083614;28;20035;-61
2022/11/03 02:52:45;;;;;;;13.73;3.40;;;;;;;11.07;78.84;101134.72;5082268;28;20028;-59
2022/11/03 02:55:10;;;;;;;13.73;3.55;;;;;;;11.06;78.50;101137.50;5082251;28;20028;-60
2022/11/03 02:57:42;;;;;;;15.18;4.05;;;;;;;11.08;78.44;101135.53;5082954;28;20039;-58
2022/11/03 03:00:08;;;;;;;17.42;3.45;;;;;;;11.05;78.79;101128.72;5078292;28;20040;-57
2022/11/03 03:02:58;;;;;;;16.67;3.53;;;;;;;11.07;79.19;101120.59;5078070;28;20120;-59
2022/11/03 03:05:28;;;;;;;16.23;3.40;;;;;;;11.05;78.82;101117.28;5082904;28;20112;-58
2022/11/03 03:08:00;;;;;;;14.20;3.30;;;;;;;11.03;79.22;101122.75;5080434;28;20046;-60
2022/11/03 03:10:31;;;;;;;18.05;3.70;;;;;;;11.02;79.81;101103.31;5086292;28;20039;-59
2022/11/03 03:13:00;;;;;;;17.35;3.58;;;;;;;11.00;80.08;101099.19;5087829;28;20040;-57
2022/11/03 03:15:37;;;;;;;14.50;3.50;;;;;;;11.04;79.33;101105.81;5086378;28;20549;-58
2022/11/03 03:18:18;;;;;;;12.02;3.22;;;;;;;11.02;79.67;101102.50;5085569;28;20060;-59
2022/11/03 03:20:50;;;;;;;15.77;3.35;;;;;;;11.07;79.73;101099.38;5083570;28;20052;-60
2022/11/03 03:23:20;;;;;;;14.50;3.55;;;;;;;11.04;79.49;101089.91;5083938;28;20059;-57
2022/11/03 03:25:57;;;;;;;12.63;3.22;;;;;;;11.05;79.47;101080.94;5084830;28;20035;-58
2022/11/03 03:28:32;;;;;;;17.52;3.70;;;;;;;11.00;79.66;101088.56;5083048;28;20103;-59
2022/11/03 03:31:00;;;;;;;18.25;3.67;;;;;;;11.04;80.07;101089.91;5098301;28;20028;-57
2022/11/03 03:33:28;;;;;;;14.30;3.67;;;;;;;11.03;80.34;101082.94;5086089;28;20099;-58
2022/11/03 03:35:56;;;;;;;18.60;3.50;;;;;;;11.02;80.17;101092.69;5087195;28;20036;-57
2022/11/03 03:38:29;;;;;;;12.70;3.25;;;;;;;11.01;79.97;101080.44;5085233;28;20031;-59
2022/11/03 03:40:58;;;;;;;12.63;3.20;;;;;;;11.00;80.26;101077.97;5086679;28;20043;-61
2022/11/03 03:43:27;;;;;;;14.02;3.53;;;;;;;10.99;80.32;101070.97;5085111;28;20156;-58
2022/11/03 03:45:55;;;;;;;13.68;3.17;;;;;;;11.02;80.16;101071.47;5084567;28;20031;-58
2022/11/03 03:48:21;;;;;;;16.98;3.38;;;;;;;11.00;80.26;101065.50;5082090;28;20071;-60
2022/11/03 03:50:48;;;;;;;14.13;3.70;;;;;;;10.99;80.95;101055.03;5085963;28;20118;-58
2022/11/03 03:53:14;;;;;;;15.93;3.30;;;;;;;11.00;80.91;101057.53;5084618;28;20040;-58
2022/11/03 03:55:47;;;;;;;16.50;4.25;;;;;;;11.00;81.30;101052.22;5085304;28;20042;-61
2022/11/03 03:58:13;;;;;;;16.15;3.75;;;;;;;11.04;81.56;101050.09;5086583;28;20043;-58
2022/11/03 04:00:40;;;;;;;13.75;3.50;;;;;;;11.07;80.96;101049.78;5086514;28;20918;-57
2022/11/03 04:03:11;;;;;;;14.82;3.55;;;;;;;11.05;81.39;101050.94;5084046;28;20392;-59
2022/11/03 04:05:36;;;;;;;14.65;3.35;;;;;;;11.04;81.26;101047.44;5077955;28;20082;-59
2022/11/03 04:08:02;;;;;;;16.20;3.42;;;;;;;11.07;81.20;101041.81;5080300;28;20039;-59
2022/11/03 04:10:27;;;;;;;14.07;3.25;;;;;;;11.06;81.33;101061.41;5085032;28;20032;-58
2022/11/03 04:22:15;;;;;;;14.30;3.60;;;;;;;11.08;81.46;101039.97;5078429;28;20513;-60
2022/11/03 04:23:59;;;;;;;13.27;3.58;;;;;;;11.07;82.59;101033.88;5084735;28;20097;-59
2022/11/03 04:26:26;;;;;;;16.33;3.58;;;;;;;11.05;82.12;101027.06;5085356;28;20052;-59
2022/11/03 04:28:52;;;;;;;13.75;3.88;;;;;;;11.08;82.02;101022.25;5085444;28;20617;-58
2022/11/03 04:31:19;;;;;;;13.38;3.40;;;;;;;11.08;82.45;101014.28;5083290;28;20119;-60
2022/11/03 04:33:45;;;;;;;14.48;3.55;;;;;;;11.11;82.61;101019.25;5075910;28;20028;-60
2022/11/03 04:36:18;;;;;;;16.30;3.90;;;;;;;11.10;82.73;101025.56;5084482;28;20117;-58
2022/11/03 04:38:44;;;;;;;13.88;3.70;;;;;;;11.15;83.18;101017.97;5084723;28;20115;-59
2022/11/03 04:41:16;;;;;;;16.23;3.40;;;;;;;11.15;82.93;101012.66;5084794;28;20551;-58
2022/11/03 04:43:42;;;;;;;14.75;3.42;;;;;;;11.19;82.27;101015.81;5085649;28;20083;-58
2022/11/03 04:46:28;;;;;;;10.98;3.20;;;;;;;11.16;83.42;101008.19;5084413;28;20040;-61
2022/11/03 04:48:56;;;;;;;15.63;3.58;;;;;;;11.12;82.91;101002.38;5084432;28;20532;-57
2022/11/03 04:51:25;;;;;;;15.88;3.50;;;;;;;11.13;83.46;101001.38;5084516;28;20978;-58
2022/11/03 04:53:57;;;;;;;14.50;3.65;;;;;;;11.13;83.34;100996.06;5080861;28;20055;-57
2022/11/03 04:56:24;;;;;;;13.82;3.53;;;;;;;11.15;84.32;101004.69;5083225;28;20927;-60
2022/11/03 04:58:50;;;;;;;15.50;3.88;;;;;;;11.16;84.08;100998.38;5081096;28;20052;-58
2022/11/03 05:01:20;;;;;;;11.90;3.55;;;;;;;11.20;84.00;100982.16;5082742;28;20463;-60
2022/11/03 05:03:50;;;;;;;12.13;3.40;;;;;;;11.19;83.91;100980.50;5084135;28;20771;-60
2022/11/03 05:06:24;;;;;;;11.35;3.35;;;;;;;11.22;84.16;100990.78;5082581;28;20032;-58
2022/11/03 05:08:54;;;;;;;10.98;3.40;;;;;;;11.17;84.10;100976.16;5083210;28;20043;-59
2022/11/03 05:11:23;;;;;;;12.80;3.33;;;;;;;11.18;84.35;100977.00;5083138;28;20031;-58
2022/11/03 05:13:49;;;;;;;10.73;3.22;;;;;;;11.20;84.65;100976.84;5085112;28;20478;-59
2022/11/03 05:16:15;;;;;;;12.25;3.40;;;;;;;11.19;84.37;100975.19;5084351;28;20031;-57
2022/11/03 05:18:43;;;;;;;14.23;3.45;;;;;;;11.12;84.40;100965.22;5082116;28;20024;-58
2022/11/03 05:21:12;;;;;;;13.68;3.40;;;;;;;11.16;84.56;100965.72;5083618;28;20464;-59
2022/11/03 05:23:43;;;;;;;13.48;3.58;;;;;;;11.16;84.77;100955.91;5083715;28;20483;-61
2022/11/03 05:26:21;;;;;;;15.10;3.30;;;;;;;11.20;84.76;100950.28;5082993;28;20480;-61
2022/11/03 05:29:00;;;;;;;14.10;3.50;;;;;;;11.20;85.41;100950.28;5078560;28;20102;-59
2022/11/03 05:31:31;;;;;;;16.50;3.80;;;;;;;11.21;85.62;100944.00;5082014;28;20035;-58
2022/11/03 05:33:58;;;;;;;14.07;3.80;;;;;;;11.19;86.11;100941.50;5083184;28;20024;-60
2022/11/03 05:36:28;;;;;;;11.10;3.22;;;;;;;11.21;85.62;100930.72;5083482;28;20064;-59
2022/11/03 05:38:58;;;;;;;18.83;3.50;;;;;;;11.23;85.92;100934.03;5083632;28;20024;-59
2022/11/03 05:41:26;;;;;;;13.25;3.10;;;;;;;11.26;85.79;100945.16;5080082;28;20035;-58
2022/11/03 05:43:56;;;;;;;10.38;3.20;;;;;;;11.25;86.11;100937.38;5085061;28;20395;-60
2022/11/03 05:46:22;;;;;;;11.65;3.30;;;;;;;11.26;86.64;100923.91;5080627;28;20111;-58
2022/11/03 05:48:48;;;;;;;12.45;3.70;;;;;;;11.27;86.30;100919.44;5083906;28;20074;-58
2022/11/03 05:51:27;;;;;;;16.10;4.07;;;;;;;11.28;86.57;100919.28;5083843;28;20067;-58
2022/11/03 05:53:55;;;;;;;14.52;3.80;;;;;;;11.27;86.55;100916.78;5082497;28;20036;-59
2022/11/03 05:56:23;;;;;;;13.70;3.40;;;;;;;11.28;86.16;100910.47;5082295;28;20081;-60
2022/11/03 05:58:50;;;;;;;18.20;3.80;;;;;;;11.30;86.67;100911.97;5082871;28;20054;-61
2022/11/03 06:01:22;;;;;;;17.73;3.58;;;;;;;11.28;86.67;100906.00;5083459;28;20734;-58
2022/11/03 06:03:47;;;;;;;13.45;3.72;;;;;;;11.31;86.96;100902.19;5082514;28;20040;-60
2022/11/03 06:06:27;;;;;;;15.52;3.60;;;;;;;11.29;86.77;100901.50;5081410;28;20384;-60
2022/11/03 06:08:52;;;;;;;15.55;3.60;;;;;;;11.29;86.71;100904.16;5081889;28;20031;-58
2022/11/03 06:11:30;;;;;;;15.25;3.40;;;;;;;11.28;86.80;100899.84;5083452;28;20036;-61
2022/11/03 06:13:58;;;;;;;13.52;3.70;;;;;;;11.28;86.48;100897.22;5080212;28;20421;-59
2022/11/03 06:17:08;;;;;;;16.13;3.90;;;;;;;11.29;86.53;100890.91;5083729;28;20028;-58
2022/11/03 06:19:38;;;;;;;14.80;3.58;;;;;;;11.26;87.14;100875.31;5018294;28;20124;-61
2022/11/03 06:22:34;;;;;;;14.63;3.53;;;;;;;11.28;86.73;100884.78;5021346;28;20582;-57
2022/11/03 06:25:08;;;;;;;17.73;3.92;;;;;;;11.25;86.69;100878.97;5067474;28;20385;-59
2022/11/03 06:27:34;;;;;;;12.82;4.00;;;;;;;11.28;87.04;100878.63;5078640;28;20036;-58
2022/11/03 06:30:20;;;;;;;16.67;3.95;;;;;;;11.27;87.01;100877.81;5070772;28;20039;-58
2022/11/03 06:32:45;;;;;;;12.52;3.47;;;;;;;11.29;86.71;100877.63;5067581;28;20353;-59
2022/11/03 06:35:17;;;;;;;13.05;3.70;;;;;;;11.30;86.66;100877.47;5073802;28;20035;-58
2022/11/03 06:37:43;;;;;;;15.10;3.53;;;;;;;11.29;86.90;100875.81;5077943;28;20039;-61
2022/11/03 06:40:09;;;;;;;13.43;3.88;;;;;;;11.30;87.10;100877.47;5080051;28;20033;-58
2022/11/03 06:42:34;;;;;;;14.85;3.42;;;;;;;11.31;87.07;100870.34;5078702;28;20055;-58
2022/11/03 06:45:10;;;;;;;18.38;3.85;;;;;;;11.22;86.69;100866.84;5076899;28;20123;-58
2022/11/03 06:47:39;;;;;;;15.88;3.60;;;;;;;11.31;86.61;100862.38;5079103;28;20080;-60
2022/11/03 06:50:20;;;;;;;15.85;3.65;;;;;;;11.30;87.29;100863.38;5072392;28;20034;-60
2022/11/03 06:52:48;;;;;;;12.48;3.30;;;;;;;11.31;86.69;100865.03;5074623;28;20032;-60
2022/11/03 06:55:21;;;;;;;13.95;3.33;;;;;;;11.30;87.34;100866.03;5073804;28;20381;-59
2022/11/03 06:57:47;;;;;;;14.55;3.42;;;;;;;11.30;86.99;100869.50;5077225;28;20040;-60
2022/11/03 07:00:16;;;;;;;15.75;3.63;;;;;;;11.30;86.86;100866.03;5077956;28;20032;-63
2022/11/03 07:03:16;;;;;;;17.90;3.55;;;;;;;11.33;87.10;100859.53;5078111;28;20143;-63
2022/11/03 07:05:44;;;;;;;12.13;3.70;;;;;;;11.32;86.91;100860.53;5082029;28;20483;-61
2022/11/03 07:08:31;;;;;;;14.13;3.05;;;;;;;11.32;86.23;100858.72;5083462;28;20386;-63
2022/11/03 07:11:03;;;;;;;13.35;3.78;;;;;;;11.33;86.98;100855.06;5097546;28;20472;-63
2022/11/03 07:13:32;;;;;;;18.50;3.90;;;;;;;11.33;86.62;100848.91;5082955;28;20028;-62
2022/11/03 07:15:57;;;;;;;14.00;3.47;;;;;;;11.35;86.37;100845.09;5081965;28;20495;-62
2022/11/03 07:18:28;;;;;;;11.88;3.25;;;;;;;11.34;86.59;100843.44;5075270;28;20039;-63
2022/11/03 07:20:54;;;;;;;12.90;3.38;;;;;;;11.36;86.11;100844.13;5082073;28;20127;-61
2022/11/03 07:23:23;;;;;;;12.07;3.58;;;;;;;11.37;85.94;100851.09;5082554;28;20081;-64
2022/11/03 07:25:53;;;;;;;13.70;3.30;;;;;;;11.39;85.99;100838.47;5082744;28;20628;-64
2022/11/03 07:28:24;;;;;;;13.00;3.55;;;;;;;11.40;86.04;100840.13;5082040;28;20088;-62
2022/11/03 07:30:50;;;;;;;13.55;3.90;;;;;;;11.39;85.75;100827.84;5080803;28;20074;-63
2022/11/03 07:33:22;;;;;;;14.77;3.30;;;;;;;11.38;85.74;100820.88;5077130;28;20028;-61
2022/11/03 07:35:49;;;;;;;15.20;3.45;;;;;;;11.46;85.22;100819.22;5081945;28;20115;-61
2022/11/03 07:38:21;;;;;;;15.40;4.03;;;;;;;11.43;85.55;100815.91;5082700;28;20207;-63
2022/11/03 07:40:48;;;;;;;14.73;3.35;;;;;;;11.44;84.77;100820.22;5081015;28;20050;-60
2022/11/03 07:43:20;;;;;;;12.48;3.15;;;;;;;11.46;85.53;100821.88;5081136;28;20074;-62
2022/11/03 07:45:48;;;;;;;14.75;3.60;;;;;;;11.50;84.74;100823.19;5069044;28;20045;-63
2022/11/03 07:48:28;;;;;;;11.00;3.22;;;;;;;11.52;84.93;100822.03;5072175;28;20043;-63
2022/11/03 07:50:59;;;;;;;10.80;3.22;;;;;;;11.52;84.49;100821.19;5079550;28;20032;-63
2022/11/03 07:53:31;;;;;;;14.60;3.65;;;;;;;11.53;84.46;100828.16;5082095;28;20024;-61
2022/11/03 07:55:58;;;;;;;13.30;3.40;;;;;;;11.58;84.26;100831.16;5081944;28;20213;-61
2022/11/03 07:58:28;;;;;;;14.52;3.53;;;;;;;11.61;83.88;100825.50;5081748;28;20031;-62
2022/11/03 08:00:57;;;;;;;10.55;3.22;;;;;;;11.61;83.69;100830.81;5075525;28;20460;-61
2022/11/03 08:03:35;;;;;;;12.20;3.47;;;;;;;11.63;84.46;100827.97;5078697;28;20032;-63
2022/11/03 08:06:00;;;;;;;12.02;3.28;;;;;;;11.65;84.18;100821.50;5082195;28;20110;-62
2022/11/03 08:08:26;;;;;;;13.63;3.40;;;;;;;11.67;83.01;100814.22;5082585;28;20456;-60
2022/11/03 08:10:51;;;;;;;11.10;3.28;;;;;;;11.69;83.29;100806.88;5082517;28;20582;-63
2022/11/03 08:13:16;;;;;;;12.85;3.35;;;;;;;11.70;83.44;100803.22;5066720;28;20032;-62
2022/11/03 08:15:42;;;;;;;13.40;3.60;;;;;;;11.71;82.97;100804.88;5076420;28;20064;-62
2022/11/03 08:18:07;;;;;;;13.60;3.60;;;;;;;11.73;83.14;100796.75;5081192;28;20032;-63
2022/11/03 08:20:33;;;;;;;15.52;3.67;;;;;;;11.74;83.16;100781.66;5079240;28;20028;-62
2022/11/03 08:22:58;;;;;;;15.63;3.90;;;;;;;11.79;82.43;100779.31;5076455;28;20067;-62
2022/11/03 08:25:23;;;;;;;11.35;3.20;;;;;;;11.79;82.11;100779.31;5080306;28;20081;-62
2022/11/03 08:27:48;;;;;;;14.18;3.50;;;;;;;11.79;82.90;100774.00;5081731;28;20038;-61
2022/11/03 08:30:14;;;;;;;15.20;3.33;;;;;;;11.82;82.02;100768.34;5075433;28;20024;-61
2022/11/03 08:32:39;;;;;;;12.50;3.30;;;;;;;11.85;81.85;100765.34;5076667;28;20324;-62
2022/11/03 08:35:05;;;;;;;12.68;3.55;;;;;;;11.83;81.89;100754.03;5075559;28;20046;-61
2022/11/03 08:37:30;;;;;;;12.48;3.25;;;;;;;11.90;81.80;100744.38;5081730;28;20063;-62
2022/11/03 08:39:55;;;;;;;12.25;3.40;;;;;;;11.92;81.92;100741.56;5081937;28;20024;-64
2022/11/03 08:42:20;;;;;;;11.02;3.30;;;;;;;11.94;81.39;100723.63;5080074;28;20075;-62
2022/11/03 08:44:46;;;;;;;10.15;3.30;;;;;;;11.96;81.42;100719.81;5079727;28;20384;-61
2022/11/03 08:47:11;;;;;;;12.18;3.50;;;;;;;11.98;81.37;100706.31;5079552;28;20035;-62
2022/11/03 08:49:36;;;;;;;13.52;3.20;;;;;;;12.02;81.16;100704.13;5080677;28;20043;-63
2022/11/03 08:52:02;;;;;;;12.85;3.30;;;;;;;12.04;81.31;100694.22;5078198;28;20059;-63
2022/11/03 08:54:27;;;;;;;11.02;3.25;;;;;;;12.11;80.18;100687.19;5076024;28;20024;-64
2022/11/03 08:56:52;;;;;;;11.43;3.20;;;;;;;12.15;79.92;100685.84;5079916;28;20084;-61
2022/11/03 08:59:18;;;;;;;10.98;3.15;;;;;;;12.21;79.97;100697.59;5081818;28;20479;-61
2022/11/03 09:01:43;;;;;;;10.70;3.03;;;;;;;12.27;79.70;100685.41;5082937;28;20102;-61
2022/11/03 09:04:09;;;;;;;13.00;3.13;;;;;;;12.32;79.12;100669.75;5083406;28;20032;-62
2022/11/03 09:06:34;;;;;;;11.45;3.10;;;;;;;12.37;79.05;100664.75;5083032;28;20028;-65
2022/11/03 09:08:59;;;;;;;13.70;3.20;;;;;;;12.40;78.93;100675.03;5080798;28;20429;-64
2022/11/03 09:11:24;;;;;;;11.70;3.30;;;;;;;12.45;78.45;100655.88;5080555;28;20027;-63
2022/11/03 09:13:50;;;;;;;10.77;3.08;;;;;;;12.49;77.69;100652.69;5079670;28;20039;-62
2022/11/03 09:16:15;;;;;;;11.48;3.10;;;;;;;12.54;77.46;100646.00;5076442;28;20024;-61
2022/11/03 09:18:41;;;;;;;8.75;2.97;;;;;;;12.57;77.94;100642.97;5078164;28;20464;-62
2022/11/03 09:21:07;;;;;;;13.35;3.15;;;;;;;12.60;77.15;100618.69;5089407;28;20604;-64
2022/11/03 09:23:33;;;;;;;11.30;3.10;;;;;;;12.62;77.10;100614.00;5074319;28;20050;-64
2022/11/03 09:25:58;;;;;;;10.45;3.00;;;;;;;12.65;76.88;100597.69;5074017;28;20028;-62
2022/11/03 09:28:23;;;;;;;11.65;3.20;;;;;;;12.67;76.56;100590.34;5076039;28;20086;-64
2022/11/03 09:30:48;;;;;;;11.27;2.97;;;;;;;12.69;76.50;100588.34;5076669;28;20743;-62
2022/11/03 09:33:14;;;;;;;9.95;3.22;;;;;;;12.72;76.00;100581.81;5072338;28;20028;-61
2022/11/03 09:35:39;;;;;;;9.75;3.08;;;;;;;12.74;75.84;100580.63;5078360;28;20380;-63
2022/11/03 09:38:06;;;;;;;9.82;2.63;;;;;;;12.77;75.55;100566.97;5077811;28;20020;-62
2022/11/03 09:40:33;;;;;;;12.05;3.00;;;;;;;12.78;75.15;100576.59;5080745;28;20036;-62
2022/11/03 09:42:58;;;;;;;9.95;3.10;;;;;;;12.82;75.20;100565.59;5071218;28;20421;-62
2022/11/03 09:45:23;;;;;;;7.32;2.80;;;;;;;12.83;75.46;100565.41;5073759;28;20043;-64
2022/11/03 09:47:49;;;;;;;13.32;3.53;;;;;;;12.86;75.00;100561.56;5078452;28;20043;-62
2022/11/03 09:50:18;;;;;;;9.30;2.90;;;;;;;12.78;75.22;100547.34;5079393;28;20097;-64
2022/11/03 09:52:44;;;;;;;9.95;3.05;;;;;;;12.84;75.12;100544.94;5079933;28;20115;-64
2022/11/03 09:55:16;;;;;;;10.98;3.17;;;;;;;12.83;74.67;100551.28;5080452;28;20492;-62
2022/11/03 09:57:42;;;;;;;10.10;2.97;;;;;;;12.85;74.75;100541.28;5076637;28;20166;-62
2022/11/03 10:00:17;;;;;;;11.23;3.15;;;;;;;12.88;75.08;100544.38;5066431;28;20119;-61
2022/11/03 10:02:42;;;;;;;11.07;3.15;;;;;;;12.86;74.27;100540.25;5080434;28;20089;-61
2022/11/03 10:05:12;;;;;;;10.57;2.97;;;;;;;12.87;74.42;100531.25;5078258;28;20490;-64
2022/11/03 10:07:37;;;;;;;9.13;3.05;;;;;;;12.87;74.76;100533.94;5080246;28;20483;-61
2022/11/03 10:10:03;;;;;;;14.00;3.22;;;;;;;12.86;74.62;100529.63;5079405;28;20053;-63
2022/11/03 10:12:33;;;;;;;9.50;3.20;;;;;;;12.86;74.55;100529.63;5079883;28;20036;-62
2022/11/03 10:14:58;;;;;;;11.60;3.30;;;;;;;12.88;74.36;100516.97;5080446;28;20494;-62
2022/11/03 10:17:28;;;;;;;9.65;3.08;;;;;;;12.85;74.31;100512.00;5078415;28;20063;-62
2022/11/03 10:19:56;;;;;;;12.20;3.10;;;;;;;12.86;74.46;100508.31;5075409;28;20040;-63
2022/11/03 10:22:22;;;;;;;10.70;2.92;;;;;;;12.88;73.95;100506.31;5078019;28;20036;-62
2022/11/03 10:24:48;;;;;;;9.18;3.10;;;;;;;12.86;74.76;100503.00;5079445;28;20031;-62
2022/11/03 10:27:24;;;;;;;10.38;3.20;;;;;;;12.86;74.41;100503.84;5079083;28;20502;-62
2022/11/03 10:30:07;;;;;;;12.30;3.22;;;;;;;12.87;74.84;100494.84;5079357;28;20561;-63
2022/11/03 10:32:36;;;;;;;11.82;3.20;;;;;;;12.90;74.76;100498.97;5078705;28;20038;-63
2022/11/03 10:35:23;;;;;;;11.07;3.03;;;;;;;12.93;74.99;100487.94;5078458;28;20036;-60
2022/11/03 10:37:48;;;;;;;11.38;2.85;;;;;;;12.95;74.57;100477.97;5077934;28;20063;-63
2022/11/03 10:40:35;;;;;;;11.57;3.25;;;;;;;12.95;74.40;100467.31;5079036;28;20063;-60
2022/11/03 10:43:00;;;;;;;9.57;2.70;;;;;;;13.03;73.58;100469.84;5077666;28;20128;-61
2022/11/03 10:45:26;;;;;;;10.95;3.20;;;;;;;13.09;73.31;100470.13;5076128;28;20111;-61
2022/11/03 10:48:05;;;;;;;13.10;3.22;;;;;;;13.15;73.46;100474.69;5080003;28;20032;-60
2022/11/03 10:50:31;;;;;;;10.63;3.10;;;;;;;13.21;72.54;100471.28;5076625;28;20036;-62
2022/11/03 10:52:57;;;;;;;9.95;2.95;;;;;;;13.27;72.58;100467.88;5071239;28;20044;-61
2022/11/03 10:55:23;;;;;;;7.07;3.03;;;;;;;13.28;71.79;100464.19;5075578;28;20024;-61
2022/11/03 10:57:50;;;;;;;9.55;3.08;;;;;;;13.34;72.14;100462.63;5077369;28;20024;-62
2022/11/03 11:00:17;;;;;;;9.00;2.80;;;;;;;13.38;71.60;100463.06;5065285;28;20305;-61
2022/11/03 11:02:45;;;;;;;13.30;3.00;;;;;;;13.41;71.29;100441.38;5079411;28;20055;-63
2022/11/03 11:05:20;;;;;;;11.35;3.47;;;;;;;13.48;71.25;100447.63;5079108;28;20040;-62
2022/11/03 11:07:46;;;;;;;8.50;2.85;;;;;;;13.51;71.36;100447.25;5079313;28;20028;-62
2022/11/03 11:10:16;;;;;;;8.77;3.10;;;;;;;13.53;70.53;100431.88;5078402;28;20032;-63
2022/11/03 11:13:12;;;;;;;9.75;2.80;;;;;;;13.57;71.07;100438.47;5083084;28;20024;-58
2022/11/03 11:15:42;;;;;;;8.40;2.65;;;;;;;13.57;70.04;100435.81;5083393;28;20036;-59
2022/11/03 11:18:08;;;;;;;7.85;2.70;;;;;;;13.59;70.24;100438.28;5083495;28;20042;-58
2022/11/03 11:20:40;;;;;;;9.02;3.40;;;;;;;13.59;69.95;100428.44;5077508;28;20024;-58
2022/11/03 11:23:28;;;;;;;6.57;2.70;;;;;;;13.63;70.24;100426.25;5077075;28;20471;-58
2022/11/03 11:26:08;;;;;;;10.13;3.10;;;;;;;13.66;71.09;100417.06;5078367;28;20487;-60
2022/11/03 11:28:38;;;;;;;9.13;2.65;;;;;;;13.66;69.83;100411.72;5082784;28;20077;-58
2022/11/03 11:31:25;;;;;;;9.73;2.90;;;;;;;13.70;70.05;100413.81;5076942;28;20116;-58
2022/11/03 11:34:20;;;;;;;7.38;2.65;;;;;;;13.75;69.31;100394.56;5073653;28;20031;-58
2022/11/03 11:36:54;;;;;;;9.77;2.88;;;;;;;13.78;69.21;100390.69;5071164;28;20119;-58
2022/11/03 11:39:19;;;;;;;10.60;3.00;;;;;;;13.82;69.19;100371.44;5075143;28;20050;-58
2022/11/03 11:42:03;;;;;;;9.30;3.15;;;;;;;13.87;69.08;100364.72;5073096;28;20527;-58
2022/11/03 11:44:38;;;;;;;8.55;2.55;;;;;;;13.87;68.55;100362.06;5092524;28;20396;-59